N090SB PHUP-PHHN

Flight info

Callsign N090SB
Flight time 0h 12m
Altitude 8000
Route PHHN
Aircraft BE9L/L-SBDFGRY/SB1

Departure

Time 2026-04-26 16:56
Airport Upolu Airport (PHUP)

Arrival

Time 2026-04-26 17:08
Airport Hana Airport (PHHN)
Time Latitude Longitude Altitude Speed Heading
2026-04-26 16:44 20.26508 -155.85820 90 ft 0 kts 245°
2026-04-26 16:53 20.26507 -155.85823 90 ft 1 kts 281°
2026-04-26 16:53 20.26513 -155.85828 91 ft 0 kts 339°
2026-04-26 16:54 20.26560 -155.85773 91 ft 25 kts 81°
2026-04-26 16:54 20.26600 -155.85560 90 ft 33 kts 79°
2026-04-26 16:55 20.26626 -155.85510 93 ft 4 kts 266°
2026-04-26 16:55 20.26572 -155.85754 93 ft 69 kts 257°
2026-04-26 16:55 20.26418 -155.86476 155 ft 122 kts 257°
2026-04-26 16:55 20.26494 -155.87439 406 ft 151 kts 285°
2026-04-26 16:56 20.27994 -155.89424 751 ft 196 kts 345°
2026-04-26 16:56 20.29332 -155.89618 1010 ft 201 kts
2026-04-26 16:56 20.30749 -155.89670 1286 ft 206 kts
2026-04-26 16:57 20.32198 -155.89692 1546 ft 210 kts
2026-04-26 16:57 20.33667 -155.89711 1803 ft 212 kts
2026-04-26 16:57 20.36638 -155.89760 2307 ft 216 kts
2026-04-26 16:58 20.38142 -155.89784 2558 ft 216 kts
2026-04-26 16:58 20.39139 -155.89800 2722 ft 217 kts
2026-04-26 16:58 20.42692 -155.89858 3295 ft 221 kts
2026-04-26 16:59 20.44230 -155.89883 3544 ft 222 kts
2026-04-26 16:59 20.47314 -155.89872 3960 ft 222 kts 14°
2026-04-26 17:00 20.50350 -155.88780 3686 ft 239 kts 23°
2026-04-26 17:00 20.53539 -155.87612 3365 ft 245 kts 23°
2026-04-26 17:00 20.55078 -155.87052 3203 ft 230 kts 24°
2026-04-26 17:01 20.56557 -155.86509 3109 ft 219 kts 24°
2026-04-26 17:01 20.57970 -155.85990 3077 ft 211 kts 25°
2026-04-26 17:01 20.59345 -155.85483 3052 ft 207 kts 24°
2026-04-26 17:01 20.60753 -155.84964 3053 ft 220 kts 24°
2026-04-26 17:02 20.62220 -155.84424 3059 ft 226 kts 23°
2026-04-26 17:02 20.63718 -155.83875 3063 ft 229 kts 23°
2026-04-26 17:02 20.65233 -155.83319 3025 ft 233 kts 22°
2026-04-26 17:02 20.66827 -155.82956 2895 ft 239 kts
2026-04-26 17:03 20.68476 -155.82972 2782 ft 241 kts
2026-04-26 17:03 20.70160 -155.82974 2664 ft 242 kts
2026-04-26 17:03 20.71813 -155.82969 2610 ft 229 kts
2026-04-26 17:03 20.73347 -155.82967 2581 ft 213 kts
2026-04-26 17:04 20.74795 -155.82964 2461 ft 206 kts
2026-04-26 17:04 20.76234 -155.82959 2254 ft 207 kts
2026-04-26 17:04 20.77666 -155.83033 2049 ft 209 kts 349°
2026-04-26 17:04 20.78912 -155.83853 1860 ft 217 kts 313°
2026-04-26 17:05 20.79522 -155.85263 1816 ft 213 kts 277°
2026-04-26 17:05 20.79568 -155.86819 1791 ft 208 kts 269°
2026-04-26 17:05 20.79553 -155.88352 1767 ft 205 kts 269°
2026-04-26 17:05 20.79547 -155.89866 1757 ft 203 kts 270°
2026-04-26 17:06 20.79550 -155.91370 1722 ft 203 kts 268°
2026-04-26 17:06 20.79552 -155.92906 1476 ft 205 kts 270°
2026-04-26 17:06 20.79554 -155.94267 1283 ft 160 kts 270°
2026-04-26 17:06 20.79557 -155.95394 1000 ft 149 kts 269°
2026-04-26 17:07 20.79558 -155.96496 722 ft 148 kts 270°
2026-04-26 17:07 20.79554 -155.97528 680 ft 136 kts 269°
2026-04-26 17:07 20.79541 -155.98543 537 ft 135 kts 269°
2026-04-26 17:07 20.79545 -155.99546 393 ft 135 kts 272°
2026-04-26 17:08 20.79557 -156.00541 116 ft 131 kts 271°
2026-04-26 17:08 20.79563 -156.01417 31 ft 73 kts 270°
2026-04-26 17:08 20.79563 -156.01545 35 ft 9 kts 257°
2026-04-26 17:08 20.79491 -156.01535 33 ft 10 kts 146°
2026-04-26 17:09 20.79481 -156.01429 40 ft 11 kts 85°
2026-04-26 17:09 20.79479 -156.01386 39 ft 5 kts 150°
2026-04-26 17:09 20.79466 -156.01384 37 ft 0 kts 184°